Time;durP1;ratioP1;P1;durP2;ratioP2;P2;SDS_P1;SDS_P2;PMS_P1;PMS_P2;Temp;Humidity;BMP_temperature;BMP_pressure;BME280_temperature;BME280_humidity;BME280_pressure;Samples;Min_cycle;Max_cycle;Signal;HPM_P1;HPM_P2
2024/01/30 00:02:34;;;;;;;;;;;;;;;3.27;61.25;99394.03;5061644;28;20425;-56
2024/01/30 00:05:24;;;;;;;;;;;;;;;3.33;60.67;99398.50;5060569;28;19927;-56
2024/01/30 00:08:12;;;;;;;;;;;;;;;3.40;60.58;99393.84;5064364;28;20362;-56
2024/01/30 00:11:01;;;;;;;;;;;;;;;3.52;60.26;99393.91;5056104;28;20278;-56
2024/01/30 00:13:49;;;;;;;;;;;;;;;3.31;60.85;99390.69;5058474;28;19920;-56
2024/01/30 00:16:37;;;;;;;;;;;;;;;3.20;60.76;99396.81;5061207;28;20386;-57
2024/01/30 00:19:25;;;;;;;;;;;;;;;3.20;61.42;99401.38;5065058;28;20263;-56
2024/01/30 00:22:15;;;;;;;;;;;;;;;3.12;61.43;99395.25;5058187;28;20416;-57
2024/01/30 00:25:03;;;;;;;;;;;;;;;3.21;60.87;99389.59;5068344;28;19968;-56
2024/01/30 00:27:51;;;;;;;;;;;;;;;2.84;62.10;99389.63;5061739;28;19967;-56
2024/01/30 00:30:39;;;;;;;;;;;;;;;2.96;61.35;99379.78;5073783;28;19939;-56
2024/01/30 00:33:27;;;;;;;;;;;;;;;2.72;62.21;99383.38;5072925;28;19932;-56
2024/01/30 00:36:15;;;;;;;;;;;;;;;2.83;61.74;99380.75;5059760;28;19932;-56
2024/01/30 00:39:08;;;;;;;;;;;;;;;2.87;61.68;99379.25;5066642;28;20354;-57
2024/01/30 00:41:56;;;;;;;;;;;;;;;2.92;61.39;99378.56;5062953;28;20039;-56
2024/01/30 00:44:45;;;;;;;;;;;;;;;2.89;61.39;99362.94;5068416;28;19920;-56
2024/01/30 00:47:33;;;;;;;;;;;;;;;2.93;61.26;99368.66;5070250;28;19927;-57
2024/01/30 00:50:21;;;;;;;;;;;;;;;2.88;60.98;99364.81;5071046;28;19935;-56
2024/01/30 00:53:10;;;;;;;;;;;;;;;2.69;61.61;99368.53;5079425;28;20395;-56
2024/01/30 00:55:59;;;;;;;;;;;;;;;2.63;62.00;99366.75;5063404;28;19925;-56
2024/01/30 00:58:47;;;;;;;;;;;;;;;2.65;62.03;99363.84;5069944;28;19920;-57
2024/01/30 01:01:35;;;;;;;;;;;;;;;2.69;62.13;99356.97;5070221;28;20265;-56
2024/01/30 01:04:23;;;;;;;;;;;;;;;2.83;61.31;99363.84;5071266;28;19921;-56
2024/01/30 01:07:11;;;;;;;;;;;;;;;2.88;61.14;99363.97;5066721;28;19920;-57
2024/01/30 01:09:59;;;;;;;;;;;;;;;2.99;61.03;99360.53;5061877;28;19928;-57
2024/01/30 01:12:49;;;;;;;;;;;;;;;3.07;60.58;99370.13;5063550;28;19951;-56
2024/01/30 01:15:37;;;;;;;;;;;;;;;3.08;60.54;99361.84;5073161;28;20394;-57
2024/01/30 01:18:25;;;;;;;;;;;;;;;3.17;59.97;99366.91;5066671;28;20551;-56
2024/01/30 01:21:16;;;;;;;;;;;;;;;3.13;60.26;99369.22;5062699;28;19932;-57
2024/01/30 01:24:04;;;;;;;;;;;;;;;2.96;60.01;99369.03;5059458;28;19936;-56
2024/01/30 01:26:52;;;;;;;;;;;;;;;3.00;60.48;99364.84;5068053;28;19974;-57
2024/01/30 01:29:43;;;;;;;;;;;;;;;3.09;60.16;99365.34;5070444;28;19920;-57
2024/01/30 01:32:30;;;;;;;;;;;;;;;3.19;59.84;99365.63;5069092;28;19920;-56
2024/01/30 01:35:19;;;;;;;;;;;;;;;3.30;59.78;99369.41;5065982;28;19940;-57
2024/01/30 01:38:07;;;;;;;;;;;;;;;3.27;59.33;99359.13;5072197;28;19920;-57
2024/01/30 01:40:55;;;;;;;;;;;;;;;3.31;59.18;99360.31;5073155;28;19928;-57
2024/01/30 01:43:44;;;;;;;;;;;;;;;3.27;59.18;99367.19;5060834;28;19933;-56
2024/01/30 01:46:34;;;;;;;;;;;;;;;3.34;59.46;99365.22;5070320;28;20284;-56
2024/01/30 01:49:23;;;;;;;;;;;;;;;3.34;59.19;99357.16;5063734;28;20366;-56
2024/01/30 01:52:11;;;;;;;;;;;;;;;3.29;59.07;99357.84;5069860;28;20100;-58
2024/01/30 01:55:00;;;;;;;;;;;;;;;3.18;58.52;99355.13;5068256;28;19924;-56
2024/01/30 01:57:48;;;;;;;;;;;;;;;3.12;59.07;99349.59;5067416;28;19975;-56
2024/01/30 02:00:39;;;;;;;;;;;;;;;3.22;58.46;99348.25;5066544;28;19924;-56
2024/01/30 02:03:29;;;;;;;;;;;;;;;3.25;58.07;99335.19;5062177;28;19924;-56
2024/01/30 02:06:17;;;;;;;;;;;;;;;3.24;57.57;99330.03;5066281;28;19921;-56
2024/01/30 02:09:05;;;;;;;;;;;;;;;3.19;57.78;99335.25;5067651;28;21529;-56
2024/01/30 02:11:55;;;;;;;;;;;;;;;3.03;58.23;99320.59;5062471;28;20377;-56
2024/01/30 02:14:47;;;;;;;;;;;;;;;2.98;58.70;99320.47;5068311;28;19928;-56
2024/01/30 02:17:35;;;;;;;;;;;;;;;3.04;59.01;99323.09;5067456;28;19954;-56
2024/01/30 02:20:27;;;;;;;;;;;;;;;3.24;58.34;99328.16;5063502;28;19920;-57
2024/01/30 02:23:17;;;;;;;;;;;;;;;3.22;57.97;99322.19;5065509;28;19927;-56
2024/01/30 02:26:05;;;;;;;;;;;;;;;3.29;57.74;99330.97;5065458;28;19936;-56
2024/01/30 02:28:53;;;;;;;;;;;;;;;3.35;57.91;99334.59;5056982;28;19932;-57
2024/01/30 02:31:41;;;;;;;;;;;;;;;3.37;57.60;99332.53;5059820;28;19955;-58
2024/01/30 02:34:29;;;;;;;;;;;;;;;3.32;58.04;99335.91;5060770;28;20328;-57
2024/01/30 02:37:17;;;;;;;;;;;;;;;3.39;57.92;99333.94;5057473;28;19928;-56
2024/01/30 02:40:08;;;;;;;;;;;;;;;3.14;58.10;99328.72;5059773;28;19994;-56
2024/01/30 02:42:56;;;;;;;;;;;;;;;3.09;58.64;99325.06;5062725;28;19971;-56
2024/01/30 02:45:44;;;;;;;;;;;;;;;3.02;58.92;99314.44;5065551;28;20412;-56
2024/01/30 02:48:32;;;;;;;;;;;;;;;3.14;58.71;99319.84;5062259;28;19928;-56
2024/01/30 02:51:20;;;;;;;;;;;;;;;3.15;58.64;99341.09;5062596;28;19936;-56
2024/01/30 02:54:08;;;;;;;;;;;;;;;3.19;59.04;99344.13;5059948;28;19932;-56
2024/01/30 02:56:57;;;;;;;;;;;;;;;3.21;58.77;99342.06;5062630;28;19928;-56
2024/01/30 02:59:45;;;;;;;;;;;;;;;3.17;58.93;99337.38;5070434;28;19981;-56
2024/01/30 03:02:34;;;;;;;;;;;;;;;3.15;58.90;99337.59;5060623;28;20362;-56
2024/01/30 03:05:22;;;;;;;;;;;;;;;3.05;59.11;99326.59;5057459;28;19975;-57
2024/01/30 03:08:10;;;;;;;;;;;;;;;3.00;59.40;99321.09;5061626;28;20101;-63
2024/01/30 03:10:58;;;;;;;;;;;;;;;3.07;59.55;99322.63;5057573;28;19920;-55
2024/01/30 03:13:48;;;;;;;;;;;;;;;3.21;58.84;99325.13;5056838;28;20134;-57
2024/01/30 03:16:36;;;;;;;;;;;;;;;3.24;59.14;99327.34;5062483;28;19943;-57
2024/01/30 03:19:23;;;;;;;;;;;;;;;3.23;59.11;99331.91;5070821;28;19920;-56
2024/01/30 03:22:12;;;;;;;;;;;;;;;3.09;59.11;99322.38;5069992;28;19920;-56
2024/01/30 03:25:00;;;;;;;;;;;;;;;3.10;59.41;99316.81;5072920;28;20277;-55
2024/01/30 03:27:48;;;;;;;;;;;;;;;3.06;59.65;99318.28;5063669;28;19925;-57
2024/01/30 03:30:37;;;;;;;;;;;;;;;3.11;59.64;99318.44;5069949;28;19931;-56
2024/01/30 03:33:27;;;;;;;;;;;;;;;3.20;59.53;99320.81;5060914;28;20011;-56
2024/01/30 03:36:16;;;;;;;;;;;;;;;3.33;59.12;99321.41;5069007;28;19932;-56
2024/01/30 03:39:04;;;;;;;;;;;;;;;3.36;59.25;99320.16;5064001;28;19920;-56
2024/01/30 03:41:52;;;;;;;;;;;;;;;3.37;59.23;99319.91;5066899;28;19925;-56
2024/01/30 03:44:41;;;;;;;;;;;;;;;3.40;59.05;99327.50;5066229;28;20683;-57
2024/01/30 03:47:30;;;;;;;;;;;;;;;3.40;58.98;99332.06;5066117;28;20284;-56
2024/01/30 03:50:18;;;;;;;;;;;;;;;3.41;59.60;99336.41;5059897;28;19921;-56
2024/01/30 03:53:06;;;;;;;;;;;;;;;3.41;59.31;99336.41;5061872;28;19921;-56
2024/01/30 03:55:54;;;;;;;;;;;;;;;3.42;59.38;99335.34;5069573;28;19931;-56
2024/01/30 03:58:42;;;;;;;;;;;;;;;3.47;59.40;99330.09;5071071;28;19927;-56
2024/01/30 04:01:30;;;;;;;;;;;;;;;3.47;59.70;99330.09;5065904;28;19920;-57
2024/01/30 04:04:20;;;;;;;;;;;;;;;3.45;59.26;99328.69;5068436;28;20015;-56
2024/01/30 04:07:08;;;;;;;;;;;;;;;3.38;59.67;99324.22;5069189;28;19920;-56
2024/01/30 04:09:56;;;;;;;;;;;;;;;3.41;59.36;99328.34;5070859;28;19932;-56
2024/01/30 04:12:46;;;;;;;;;;;;;;;3.42;59.58;99328.09;5066615;28;19928;-56
2024/01/30 04:15:34;;;;;;;;;;;;;;;3.48;59.42;99323.69;5060488;28;19921;-56
2024/01/30 04:18:22;;;;;;;;;;;;;;;3.53;59.57;99326.50;5062721;28;19924;-57
2024/01/30 04:21:12;;;;;;;;;;;;;;;3.45;59.36;99323.31;5069813;28;19921;-58
2024/01/30 04:24:00;;;;;;;;;;;;;;;3.45;59.70;99321.44;5068581;28;20436;-57
2024/01/30 04:26:48;;;;;;;;;;;;;;;3.53;59.41;99329.19;5066822;28;20286;-56
2024/01/30 04:29:36;;;;;;;;;;;;;;;3.52;59.69;99319.50;5082256;28;19927;-56
2024/01/30 04:32:24;;;;;;;;;;;;;;;3.57;59.10;99332.22;5070665;28;19963;-56
2024/01/30 04:35:12;;;;;;;;;;;;;;;3.54;59.46;99328.13;5068108;28;20545;-57
2024/01/30 04:38:01;;;;;;;;;;;;;;;3.53;58.94;99331.88;5065813;28;19920;-57
2024/01/30 04:40:49;;;;;;;;;;;;;;;3.47;59.38;99335.47;5069821;28;19920;-56
2024/01/30 04:43:38;;;;;;;;;;;;;;;3.48;59.23;99334.44;5070073;28;19928;-57
2024/01/30 04:46:26;;;;;;;;;;;;;;;3.41;59.85;99339.91;5065462;28;20393;-56
2024/01/30 04:49:14;;;;;;;;;;;;;;;3.48;59.09;99337.13;5067952;28;20425;-56
2024/01/30 04:52:02;;;;;;;;;;;;;;;3.49;59.69;99346.00;5065691;28;19920;-56
2024/01/30 04:54:52;;;;;;;;;;;;;;;3.56;59.32;99349.38;5058525;28;19923;-56
2024/01/30 04:57:40;;;;;;;;;;;;;;;3.49;59.34;99352.19;5058910;28;20050;-56
2024/01/30 05:00:28;;;;;;;;;;;;;;;3.51;59.08;99355.44;5064268;28;19985;-56
2024/01/30 05:03:17;;;;;;;;;;;;;;;3.47;59.21;99354.28;5065324;28;19944;-56
2024/01/30 05:06:08;;;;;;;;;;;;;;;3.52;59.54;99353.59;5060178;28;20007;-56
2024/01/30 05:08:56;;;;;;;;;;;;;;;3.60;59.31;99355.94;5071958;28;19928;-56
2024/01/30 05:11:46;;;;;;;;;;;;;;;3.65;59.40;99354.19;5064999;28;20023;-57
2024/01/30 05:14:34;;;;;;;;;;;;;;;3.71;58.73;99354.31;5063986;28;20374;-56
2024/01/30 05:17:23;;;;;;;;;;;;;;;3.77;58.62;99356.09;5069100;28;19931;-56
2024/01/30 05:20:11;;;;;;;;;;;;;;;3.84;58.53;99360.31;5074626;28;19920;-57
2024/01/30 05:22:59;;;;;;;;;;;;;;;3.79;58.35;99367.44;5068536;28;19927;-56
2024/01/30 05:25:47;;;;;;;;;;;;;;;3.73;58.73;99365.66;5064897;28;19932;-56
2024/01/30 05:28:37;;;;;;;;;;;;;;;3.82;58.45;99362.41;5070336;28;19927;-57
2024/01/30 05:31:27;;;;;;;;;;;;;;;3.86;58.19;99358.22;5068259;28;19943;-56
2024/01/30 05:34:15;;;;;;;;;;;;;;;3.90;58.62;99359.38;5068069;28;20273;-57
2024/01/30 05:37:04;;;;;;;;;;;;;;;4.05;58.13;99355.41;5057801;28;19968;-56
2024/01/30 05:39:52;;;;;;;;;;;;;;;4.04;57.63;99364.53;5070665;28;20003;-57
2024/01/30 05:42:40;;;;;;;;;;;;;;;4.08;57.85;99360.31;5058181;28;19921;-56
2024/01/30 05:45:29;;;;;;;;;;;;;;;4.15;57.74;99361.84;5062070;28;19928;-56
2024/01/30 05:48:17;;;;;;;;;;;;;;;4.23;57.52;99367.94;5061581;28;20278;-56
2024/01/30 05:51:05;;;;;;;;;;;;;;;4.23;57.42;99370.63;5055677;28;19920;-57
2024/01/30 05:53:54;;;;;;;;;;;;;;;4.23;57.15;99365.25;5069278;28;19931;-56
2024/01/30 05:56:42;;;;;;;;;;;;;;;4.14;57.61;99370.16;5066718;28;20383;-57
2024/01/30 05:59:31;;;;;;;;;;;;;;;3.97;58.34;99363.84;5060607;28;20017;-56
2024/01/30 06:02:21;;;;;;;;;;;;;;;3.89;58.15;99365.00;5076776;28;19927;-56
2024/01/30 06:05:09;;;;;;;;;;;;;;;3.91;57.59;99362.91;5063797;28;19920;-57
2024/01/30 06:07:57;;;;;;;;;;;;;;;3.71;58.53;99375.81;5065612;28;19943;-56
2024/01/30 06:10:47;;;;;;;;;;;;;;;3.56;59.27;99379.75;5066043;28;20011;-58
2024/01/30 06:13:35;;;;;;;;;;;;;;;3.65;59.26;99378.38;5066991;28;19920;-57
2024/01/30 06:16:23;;;;;;;;;;;;;;;3.64;59.12;99376.75;5064243;28;19927;-58
2024/01/30 06:19:13;;;;;;;;;;;;;;;3.71;58.39;99368.59;5065783;28;20009;-56
2024/01/30 06:22:01;;;;;;;;;;;;;;;3.59;58.62;99376.63;5060197;28;20491;-57
2024/01/30 06:24:49;;;;;;;;;;;;;;;3.68;58.84;99379.81;5063550;28;19931;-56
2024/01/30 06:27:37;;;;;;;;;;;;;;;3.71;58.63;99373.97;5062102;28;19921;-56
2024/01/30 06:30:25;;;;;;;;;;;;;;;3.72;58.47;99374.78;5062050;28;20434;-57
2024/01/30 06:33:16;;;;;;;;;;;;;;;3.91;58.33;99381.72;5059594;28;19928;-57
2024/01/30 06:36:08;;;;;;;;;;;;;;;3.95;57.98;99372.13;5057971;28;19925;-56
2024/01/30 06:38:56;;;;;;;;;;;;;;;3.91;57.96;99379.03;5064080;28;19933;-56
2024/01/30 06:41:46;;;;;;;;;;;;;;;3.93;57.81;99369.66;5063975;28;19927;-57
2024/01/30 06:44:34;;;;;;;;;;;;;;;3.89;57.68;99373.06;5062687;28;19925;-56
2024/01/30 06:47:22;;;;;;;;;;;;;;;3.86;57.89;99384.28;5067097;28;19939;-56
2024/01/30 06:50:10;;;;;;;;;;;;;;;3.89;58.07;99383.81;5067910;28;19943;-56
2024/01/30 06:52:59;;;;;;;;;;;;;;;4.06;57.92;99382.09;5069331;28;19926;-56
2024/01/30 06:55:48;;;;;;;;;;;;;;;4.05;57.31;99377.75;5064258;28;19935;-56
2024/01/30 06:58:35;;;;;;;;;;;;;;;3.91;57.57;99376.34;5066447;28;19970;-57
2024/01/30 07:01:28;;;;;;;;;;;;;;;3.85;57.77;99380.78;5070021;28;19920;-56
2024/01/30 07:04:18;;;;;;;;;;;;;;;3.72;58.54;99380.16;5065374;28;19921;-56
2024/01/30 07:07:11;;;;;;;;;;;;;;;3.63;58.90;99380.50;5067117;28;19920;-56
2024/01/30 07:10:02;;;;;;;;;;;;;;;3.61;59.24;99387.13;5064477;28;19941;-56
2024/01/30 07:12:51;;;;;;;;;;;;;;;3.61;59.03;99387.94;5066217;28;19925;-56
2024/01/30 07:15:39;;;;;;;;;;;;;;;3.60;59.03;99391.69;5068072;28;19943;-56
2024/01/30 07:18:27;;;;;;;;;;;;;;;3.55;59.59;99390.75;5068792;28;20368;-56
2024/01/30 07:21:15;;;;;;;;;;;;;;;3.42;59.48;99394.44;5061832;28;19932;-56
2024/01/30 07:24:03;;;;;;;;;;;;;;;3.47;59.76;99393.78;5063950;28;19931;-56
2024/01/30 07:26:53;;;;;;;;;;;;;;;3.48;60.02;99393.53;5066927;28;19920;-56
2024/01/30 07:29:41;;;;;;;;;;;;;;;3.46;60.37;99400.97;5062511;28;19920;-58
2024/01/30 07:32:31;;;;;;;;;;;;;;;3.50;60.21;99404.03;5064610;28;20025;-57
2024/01/30 07:35:19;;;;;;;;;;;;;;;3.67;59.03;99403.19;5065063;28;20396;-57
2024/01/30 07:38:07;;;;;;;;;;;;;;;3.49;59.59;99400.53;5063626;28;20434;-58
2024/01/30 07:40:55;;;;;;;;;;;;;;;3.46;60.04;99405.53;5074279;28;20377;-56
2024/01/30 07:43:45;;;;;;;;;;;;;;;3.33;60.40;99407.38;5065764;28;20316;-57
2024/01/30 07:46:33;;;;;;;;;;;;;;;3.44;60.54;99402.28;5069471;28;19921;-56
2024/01/30 07:49:21;;;;;;;;;;;;;;;3.51;60.18;99413.75;5067832;28;19920;-57
2024/01/30 07:52:09;;;;;;;;;;;;;;;3.65;60.11;99404.44;5064946;28;19921;-56
2024/01/30 07:54:58;;;;;;;;;;;;;;;3.73;60.14;99412.19;5070681;28;19942;-57
2024/01/30 07:57:46;;;;;;;;;;;;;;;3.82;59.85;99409.97;5036491;28;20027;-58
2024/01/30 08:00:37;;;;;;;;;;;;;;;3.95;59.38;99409.78;5015260;28;20055;-58
2024/01/30 08:03:25;;;;;;;;;;;;;;;4.08;58.91;99414.13;5036659;28;19985;-56
2024/01/30 08:06:13;;;;;;;;;;;;;;;4.13;59.17;99419.63;5065428;28;20626;-57
2024/01/30 08:09:01;;;;;;;;;;;;;;;4.26;58.31;99415.88;5068213;28;19921;-56
2024/01/30 08:11:49;;;;;;;;;;;;;;;4.28;59.01;99416.47;5059584;28;21160;-56
2024/01/30 08:14:37;;;;;;;;;;;;;;;4.40;58.58;99410.03;5062569;28;19925;-56
2024/01/30 08:17:26;;;;;;;;;;;;;;;4.47;58.28;99418.84;5062080;28;19924;-56
2024/01/30 08:20:14;;;;;;;;;;;;;;;4.59;58.04;99424.19;5065550;28;19921;-56
2024/01/30 08:23:02;;;;;;;;;;;;;;;4.67;58.18;99423.00;5066492;28;19928;-56
2024/01/30 08:25:50;;;;;;;;;;;;;;;4.76;58.05;99415.41;5063230;28;20258;-56
2024/01/30 08:28:38;;;;;;;;;;;;;;;4.62;57.73;99415.63;5064735;28;19921;-57
2024/01/30 08:31:27;;;;;;;;;;;;;;;4.64;58.00;99412.72;5058398;28;19932;-56
2024/01/30 08:34:16;;;;;;;;;;;;;;;4.72;58.08;99413.16;5066101;28;20277;-59
2024/01/30 08:37:04;;;;;;;;;;;;;;;4.75;58.02;99408.38;5060069;28;20046;-58
2024/01/30 08:39:54;;;;;;;;;;;;;;;4.78;57.61;99411.41;5071142;28;19943;-56
2024/01/30 08:42:42;;;;;;;;;;;;;;;4.72;57.62;99413.16;5064986;28;19921;-56
2024/01/30 08:45:30;;;;;;;;;;;;;;;4.77;57.63;99414.34;5066593;28;19969;-56
2024/01/30 08:48:18;;;;;;;;;;;;;;;4.84;58.06;99404.25;5059289;28;19920;-56
2024/01/30 08:51:08;;;;;;;;;;;;;;;4.94;57.59;99415.25;5071474;28;19924;-56
2024/01/30 08:53:56;;;;;;;;;;;;;;;5.05;57.34;99419.78;5061173;28;19927;-56
2024/01/30 08:56:45;;;;;;;;;;;;;;;5.11;57.52;99405.34;5062069;28;19921;-57
2024/01/30 08:59:33;;;;;;;;;;;;;;;5.11;57.38;99409.94;5060390;28;19925;-56
2024/01/30 09:02:21;;;;;;;;;;;;;;;5.33;57.38;99404.72;5065892;28;19921;-56
2024/01/30 09:05:10;;;;;;;;;;;;;;;5.41;56.88;99405.13;5065063;28;20290;-56
2024/01/30 09:07:59;;;;;;;;;;;;;;;5.50;56.66;99410.97;5067556;28;20313;-56
2024/01/30 09:10:48;;;;;;;;;;;;;;;5.49;56.43;99403.94;5066997;28;19928;-56
2024/01/30 09:13:36;;;;;;;;;;;;;;;5.51;56.41;99409.91;5063681;28;19931;-56
2024/01/30 09:16:25;;;;;;;;;;;;;;;5.61;56.41;99417.38;5064239;28;19968;-56
2024/01/30 09:19:13;;;;;;;;;;;;;;;5.62;56.58;99421.69;5067254;28;19920;-56
2024/01/30 09:22:01;;;;;;;;;;;;;;;5.61;56.24;99418.19;5069906;28;20498;-56
2024/01/30 09:24:50;;;;;;;;;;;;;;;5.58;56.83;99413.25;5058482;28;19974;-57
2024/01/30 09:27:38;;;;;;;;;;;;;;;5.68;56.42;99426.09;5066738;28;19920;-57
2024/01/30 09:30:26;;;;;;;;;;;;;;;5.72;56.81;99413.78;5063462;28;19920;-56
2024/01/30 09:33:15;;;;;;;;;;;;;;;5.69;56.67;99416.97;5063591;28;20273;-59
2024/01/30 09:36:03;;;;;;;;;;;;;;;5.75;56.42;99416.81;5059213;28;19928;-61
2024/01/30 09:38:51;;;;;;;;;;;;;;;5.75;56.51;99410.59;5059756;28;20401;-57
2024/01/30 09:41:41;;;;;;;;;;;;;;;5.79;56.93;99415.25;5074829;28;19969;-58
2024/01/30 09:44:29;;;;;;;;;;;;;;;5.73;57.07;99418.94;5069337;28;20070;-57
2024/01/30 09:47:17;;;;;;;;;;;;;;;6.00;57.01;99431.81;5066567;28;19931;-57
2024/01/30 09:50:06;;;;;;;;;;;;;;;6.17;56.97;99427.25;5068809;28;19927;-57
2024/01/30 09:52:54;;;;;;;;;;;;;;;6.25;56.64;99429.56;5064475;28;19932;-57
2024/01/30 09:55:43;;;;;;;;;;;;;;;6.35;56.34;99411.88;5060328;28;19921;-56
2024/01/30 09:58:34;;;;;;;;;;;;;;;6.49;55.48;99418.56;5072060;28;19925;-57
2024/01/30 10:01:22;;;;;;;;;;;;;;;6.50;56.10;99410.22;5069142;28;19920;-56
2024/01/30 10:04:10;;;;;;;;;;;;;;;6.61;56.00;99413.91;5059954;28;20274;-56
2024/01/30 10:06:59;;;;;;;;;;;;;;;6.70;55.67;99409.69;5068887;28;20404;-57
2024/01/30 10:09:48;;;;;;;;;;;;;;;6.81;55.49;99408.75;5069729;28;20236;-56
2024/01/30 10:12:36;;;;;;;;;;;;;;;6.92;55.60;99406.19;5054401;28;20452;-57
2024/01/30 10:15:26;;;;;;;;;;;;;;;7.06;55.33;99402.06;5057367;28;19921;-56
2024/01/30 10:18:14;;;;;;;;;;;;;;;7.11;55.55;99404.00;5062645;28;19987;-57
2024/01/30 10:21:02;;;;;;;;;;;;;;;7.16;54.85;99402.19;5062266;28;20293;-57
2024/01/30 10:23:50;;;;;;;;;;;;;;;7.24;54.92;99407.13;5065719;28;19924;-56
2024/01/30 10:26:38;;;;;;;;;;;;;;;7.26;54.67;99412.28;5064737;28;20015;-58
2024/01/30 10:29:27;;;;;;;;;;;;;;;7.33;54.62;99408.31;5063295;28;20070;-56
2024/01/30 10:32:17;;;;;;;;;;;;;;;7.39;54.44;99406.47;5060829;28;19994;-56
2024/01/30 10:35:05;;;;;;;;;;;;;;;7.44;54.58;99403.03;5067132;28;20026;-58
2024/01/30 10:37:53;;;;;;;;;;;;;;;7.44;54.64;99403.03;5066261;28;20061;-57
2024/01/30 10:40:42;;;;;;;;;;;;;;;7.50;54.67;99402.81;5062060;28;19920;-59
2024/01/30 10:43:32;;;;;;;;;;;;;;;7.56;54.42;99395.56;5062664;28;20323;-57
2024/01/30 10:46:21;;;;;;;;;;;;;;;7.68;54.38;99396.25;5056417;28;20000;-56
2024/01/30 10:49:11;;;;;;;;;;;;;;;7.71;54.23;99392.19;5067731;28;19935;-60
2024/01/30 10:51:59;;;;;;;;;;;;;;;7.75;54.11;99399.56;5065293;28;20570;-57
2024/01/30 10:54:47;;;;;;;;;;;;;;;7.79;54.40;99389.84;5068053;28;20118;-57
2024/01/30 10:57:36;;;;;;;;;;;;;;;7.87;54.00;99391.25;5059842;28;19921;-57
2024/01/30 11:00:26;;;;;;;;;;;;;;;7.95;53.64;99392.69;5067792;28;19928;-57
2024/01/30 11:03:14;;;;;;;;;;;;;;;7.95;53.80;99382.69;5068706;28;20274;-57
2024/01/30 11:06:04;;;;;;;;;;;;;;;8.04;53.18;99394.69;5062404;28;19920;-59
2024/01/30 11:09:01;;;;;;;;;;;;;;;8.11;53.19;99387.16;5069683;28;19921;-58
2024/01/30 11:11:50;;;;;;;;;;;;;;;8.14;53.35;99386.63;5065251;28;19932;-57
2024/01/30 11:14:40;;;;;;;;;;;;;;;8.16;53.16;99388.28;5059370;28;19928;-58
2024/01/30 11:17:28;;;;;;;;;;;;;;;8.23;52.66;99386.97;5059436;28;20017;-57
2024/01/30 11:20:19;;;;;;;;;;;;;;;8.36;52.76;99383.00;5056903;28;20509;-58
2024/01/30 11:23:10;;;;;;;;;;;;;;;8.29;53.24;99377.78;5064901;28;19925;-57
2024/01/30 11:25:58;;;;;;;;;;;;;;;8.40;53.47;99374.09;5068511;28;19928;-57
2024/01/30 11:28:47;;;;;;;;;;;;;;;8.49;52.86;99370.91;5060816;28;19920;-58
2024/01/30 11:31:35;;;;;;;;;;;;;;;8.37;51.89;99371.94;5068010;28;20019;-57
2024/01/30 11:34:23;;;;;;;;;;;;;;;8.51;52.02;99371.47;5061902;28;19921;-57
2024/01/30 11:37:12;;;;;;;;;;;;;;;8.58;52.42;99370.16;5063737;28;19955;-56
2024/01/30 11:40:01;;;;;;;;;;;;;;;8.64;52.66;99366.41;5064122;28;20286;-57
2024/01/30 11:42:50;;;;;;;;;;;;;;;8.64;52.42;99352.06;5068245;28;20278;-57
2024/01/30 11:45:39;;;;;;;;;;;;;;;8.70;52.24;99356.41;5059134;28;19960;-57
2024/01/30 11:48:27;;;;;;;;;;;;;;;8.62;51.76;99359.59;5057281;28;19921;-59
2024/01/30 11:51:18;;;;;;;;;;;;;;;8.68;52.17;99352.31;5059510;28;19935;-57
2024/01/30 11:54:06;;;;;;;;;;;;;;;8.75;52.31;99345.59;5055819;28;19920;-58
2024/01/30 11:56:56;;;;;;;;;;;;;;;8.80;52.09;99345.63;5065883;28;19920;-57
2024/01/30 11:59:44;;;;;;;;;;;;;;;8.86;52.09;99339.13;5064681;28;19939;-58
2024/01/30 12:02:32;;;;;;;;;;;;;;;8.85;51.81;99332.09;5076519;28;19924;-58
2024/01/30 12:05:20;;;;;;;;;;;;;;;8.93;51.65;99334.28;5058987;28;19924;-57
2024/01/30 12:08:08;;;;;;;;;;;;;;;9.01;52.02;99332.16;5059084;28;20274;-58
2024/01/30 12:10:58;;;;;;;;;;;;;;;9.07;52.22;99333.78;5062985;28;19920;-59
2024/01/30 12:13:47;;;;;;;;;;;;;;;9.09;51.65;99328.91;5060454;28;19932;-58
2024/01/30 12:16:35;;;;;;;;;;;;;;;9.17;51.52;99326.50;5062625;28;19920;-58
2024/01/30 12:19:23;;;;;;;;;;;;;;;9.24;51.61;99322.72;5059114;28;19921;-58
2024/01/30 12:22:11;;;;;;;;;;;;;;;9.25;51.64;99314.31;5063656;28;19964;-57
2024/01/30 12:24:59;;;;;;;;;;;;;;;9.28;51.48;99312.97;5065132;28;19931;-58
2024/01/30 12:27:50;;;;;;;;;;;;;;;9.34;51.48;99312.72;5064023;28;19925;-58
2024/01/30 12:30:40;;;;;;;;;;;;;;;9.38;51.22;99307.56;5067473;28;20015;-57
2024/01/30 12:33:28;;;;;;;;;;;;;;;9.41;51.55;99302.41;5060915;28;20004;-62
2024/01/30 12:36:16;;;;;;;;;;;;;;;9.44;51.36;99307.31;5060289;28;19921;-57
2024/01/30 12:39:05;;;;;;;;;;;;;;;9.42;51.94;99295.88;5065582;28;19921;-57
2024/01/30 12:41:55;;;;;;;;;;;;;;;9.39;51.97;99293.72;5069174;28;19920;-57
2024/01/30 12:44:43;;;;;;;;;;;;;;;9.44;51.07;99298.34;5063067;28;19921;-58
2024/01/30 12:47:32;;;;;;;;;;;;;;;9.38;51.03;99292.09;5062390;28;19924;-58
2024/01/30 12:50:22;;;;;;;;;;;;;;;9.44;51.23;99296.44;5055395;28;19921;-58
2024/01/30 12:53:13;;;;;;;;;;;;;;;9.41;51.42;99293.44;5063421;28;19920;-57
2024/01/30 12:56:01;;;;;;;;;;;;;;;9.44;51.16;99291.03;5060656;28;20004;-58
2024/01/30 12:58:49;;;;;;;;;;;;;;;9.52;51.32;99283.41;5057626;28;19927;-57
2024/01/30 13:01:39;;;;;;;;;;;;;;;9.54;51.47;99283.97;5067575;28;19924;-57
2024/01/30 13:04:29;;;;;;;;;;;;;;;9.60;51.54;99286.41;5068066;28;20273;-57
2024/01/30 13:07:17;;;;;;;;;;;;;;;9.71;51.25;99279.09;5060583;28;20354;-58
2024/01/30 13:10:06;;;;;;;;;;;;;;;9.69;51.23;99281.25;5060351;28;20585;-57
2024/01/30 13:12:54;;;;;;;;;;;;;;;9.71;51.53;99279.91;5069404;28;19920;-58
2024/01/30 13:15:42;;;;;;;;;;;;;;;9.76;51.51;99284.53;5057677;28;20386;-58
2024/01/30 13:18:30;;;;;;;;;;;;;;;9.79;51.56;99292.09;5055793;28;19921;-58
2024/01/30 13:21:20;;;;;;;;;;;;;;;9.80;51.10;99296.47;5066768;28;19935;-58
2024/01/30 13:24:08;;;;;;;;;;;;;;;9.89;50.49;99291.28;5072099;28;19921;-58
2024/01/30 13:26:55;;;;;;;;;;;;;;;9.82;50.30;99298.91;5065320;28;19928;-58
2024/01/30 13:29:43;;;;;;;;;;;;;;;9.90;50.89;99299.16;5069975;28;20021;-59
2024/01/30 13:32:32;;;;;;;;;;;;;;;9.87;50.73;99293.47;5067112;28;20206;-59
2024/01/30 13:35:20;;;;;;;;;;;;;;;9.92;51.31;99286.13;5067578;28;19921;-59
2024/01/30 13:38:09;;;;;;;;;;;;;;;9.96;51.02;99284.50;5064113;28;20491;-60
2024/01/30 13:40:58;;;;;;;;;;;;;;;9.96;51.23;99287.22;5068135;28;19928;-59
2024/01/30 13:43:45;;;;;;;;;;;;;;;9.96;51.38;99281.78;5062997;28;19943;-59
2024/01/30 13:46:34;;;;;;;;;;;;;;;10.03;51.54;99286.13;5067590;28;19933;-60
2024/01/30 13:49:23;;;;;;;;;;;;;;;9.98;50.90;99284.22;5065274;28;20255;-60
2024/01/30 13:52:11;;;;;;;;;;;;;;;10.04;51.42;99282.31;5068232;28;19921;-61
2024/01/30 13:55:00;;;;;;;;;;;;;;;10.10;51.40;99282.03;5067483;28;20378;-59
2024/01/30 13:57:48;;;;;;;;;;;;;;;10.17;51.07;99273.59;5061086;28;20018;-59
2024/01/30 14:00:38;;;;;;;;;;;;;;;10.17;51.04;99277.16;5060492;28;20012;-59
2024/01/30 14:03:26;;;;;;;;;;;;;;;10.21;51.08;99272.75;5067116;28;19967;-59
2024/01/30 14:06:15;;;;;;;;;;;;;;;10.20;51.21;99281.19;5061140;28;19920;-58
2024/01/30 14:09:03;;;;;;;;;;;;;;;10.25;51.93;99283.94;5059682;28;20290;-58
2024/01/30 14:11:56;;;;;;;;;;;;;;;10.23;51.82;99286.09;5065395;28;20431;-60
2024/01/30 14:14:44;;;;;;;;;;;;;;;10.27;51.75;99287.19;5060286;28;19921;-60
2024/01/30 14:17:32;;;;;;;;;;;;;;;10.27;51.38;99294.50;5054669;28;19952;-59
2024/01/30 14:20:20;;;;;;;;;;;;;;;10.18;51.26;99299.69;5064942;28;19983;-57
2024/01/30 14:23:08;;;;;;;;;;;;;;;10.10;51.79;99295.59;5062487;28;19928;-57
2024/01/30 14:25:57;;;;;;;;;;;;;;;10.05;52.12;99292.09;5061235;28;19932;-57
2024/01/30 14:28:46;;;;;;;;;;;;;;;9.95;52.18;99290.19;5067804;28;19928;-57
2024/01/30 14:31:34;;;;;;;;;;;;;;;9.96;51.83;99292.66;5059534;28;19971;-57
2024/01/30 14:34:22;;;;;;;;;;;;;;;9.94;51.75;99297.53;5069868;28;20320;-58
2024/01/30 14:37:10;;;;;;;;;;;;;;;9.95;51.60;99303.75;5062563;28;19933;-57
2024/01/30 14:39:58;;;;;;;;;;;;;;;9.97;51.54;99313.28;5075245;28;19927;-56
2024/01/30 14:42:46;;;;;;;;;;;;;;;9.85;52.46;99310.00;5071034;28;19963;-56
2024/01/30 14:45:36;;;;;;;;;;;;;;;9.86;52.46;99314.38;5064028;28;20398;-57
2024/01/30 14:48:24;;;;;;;;;;;;;;;9.87;52.53;99321.44;5066071;28;19920;-56
2024/01/30 14:51:12;;;;;;;;;;;;;;;9.84;52.23;99316.53;5058389;28;19932;-57